Aérodrome :
LOGIN :

S'inscrire | Disclaimer

   EN    FR    IT 

 










Légende :    VFR   VFR Marginal   IFR   IFR Intensif   IFR Très Intensif
Visi : 
Plafond : 
>= 8 km
>= 3000ft
5 à 8 km
1000 à 3000 ft
1500m à 5 km
500 à 1000 ft
800 à 1500m
200 à 500 ft
< 800m
< 200 ft
Symboles :   Orages  Brouillard  Fortes neiges  Fortes précipitations  Vent > 20 kt
SIGMETs :   Divers  Orages  Givrage  Turbulence  Onde Orograph.  Cendres Volcan.







- Altitude de l'aérodrome : 12 ft
- Code IATA : NCE
- Voir les cartes d'approche


LFMN - Nice

DERNIER METAR :
  • 191300Z 07015KT CAVOK 13/09 Q1008 NOSIG

METARs EXPIRÉS :
  • 191230Z 08014KT CAVOK 13/08 Q1008 NOSIG
  • 191200Z 09016KT CAVOK 13/08 Q1008 NOSIG
  • 191130Z 08017KT CAVOK 13/07 Q1008 NOSIG
  • 191100Z 08014KT CAVOK 13/08 Q1008 NOSIG
  • 191030Z 08005KT 050V110 CAVOK 13/07 Q1008 NOSIG

TAF AMD TAF LFMN
Valide du 19 à 11h jusqu'au 20 à 15h UTC


191118Z 1911/2015 08020KT CAVOK
PROB30
TEMPO 1911/1912 25015G25KT
BECMG 1912/1914 10020KT
BECMG 1916/1918 34010KT
BECMG 2011/2013 20010KT
TEMPO 2013/2015 24020G30KT
ATIS : +33 4 93 17 21 16
Pas de NOTAMs connus pour ce terrain.
2 SIGMETs publiés pour la FIR Marseille (LFMM) :
 
Turbulence forte
LFMM SIGMET 6 VALID 191100/191500 LFPW
LFMM MARSEILLE FIR/UIR SEV TURB FCST WI N4330 E00900 - N4315 E00945 - N4245 E00945 - N4230 E00800 - N4315 E00715 - N4330 E00900 SFC/FL040 STNR NC=
Onde orographique forte
LFMM SIGMET 5 VALID 191100/191500 LFPW
LFMM MARSEILLE FIR/UIR SEV MTW FCST E OF E00900 SFC/FL250 STNR NC=



MET'MAP, la Météo Aéronautique d'un coup d'oeil ! - Copyright ORBIFLY Décembre 2007 - Disclaimer

ORBIFLY MET'MAP TEAM :

Programmation & Développement : Alexandra Zaïnal
Conception & Développement : Baudouin d'Aumeries
Co-Programmation & Développement : Marc-Olivier Méhu
Soutien technique & logistique : Manuel Goepfert

Contact : metmap@orbifly.com




SOURCES & CREDITS :

   NOAA